sensor_id;sensor_type;location;lat;lon;timestamp;temperature;humidity
39931;DHT22;26635;-35.248;149.138;2023-02-07T00:02:01;24.00;72.00
39931;DHT22;26635;-35.248;149.138;2023-02-07T00:04:32;24.20;71.40
39931;DHT22;26635;-35.248;149.138;2023-02-07T00:07:04;24.30;70.40
39931;DHT22;26635;-35.248;149.138;2023-02-07T00:09:35;24.40;70.20
39931;DHT22;26635;-35.248;149.138;2023-02-07T00:12:07;24.60;70.00
39931;DHT22;26635;-35.248;149.138;2023-02-07T00:14:37;24.80;69.30
39931;DHT22;26635;-35.248;149.138;2023-02-07T00:17:08;25.00;69.00
39931;DHT22;26635;-35.248;149.138;2023-02-07T00:19:38;25.00;67.90
39931;DHT22;26635;-35.248;149.138;2023-02-07T00:22:09;24.90;67.90
39931;DHT22;26635;-35.248;149.138;2023-02-07T00:24:39;24.80;68.30
39931;DHT22;26635;-35.248;149.138;2023-02-07T00:27:09;25.00;68.70
39931;DHT22;26635;-35.248;149.138;2023-02-07T00:29:40;25.20;67.70
39931;DHT22;26635;-35.248;149.138;2023-02-07T00:32:11;25.20;67.10
39931;DHT22;26635;-35.248;149.138;2023-02-07T00:34:41;25.00;67.10
39931;DHT22;26635;-35.248;149.138;2023-02-07T00:37:12;24.80;67.40
39931;DHT22;26635;-35.248;149.138;2023-02-07T00:39:42;24.90;67.70
39931;DHT22;26635;-35.248;149.138;2023-02-07T00:42:13;25.20;66.90
39931;DHT22;26635;-35.248;149.138;2023-02-07T00:44:44;25.50;66.30
39931;DHT22;26635;-35.248;149.138;2023-02-07T00:47:14;26.00;66.10
39931;DHT22;26635;-35.248;149.138;2023-02-07T00:49:45;26.10;64.30
39931;DHT22;26635;-35.248;149.138;2023-02-07T00:52:19;26.50;62.80
39931;DHT22;26635;-35.248;149.138;2023-02-07T00:54:49;26.70;62.50
39931;DHT22;26635;-35.248;149.138;2023-02-07T00:57:20;27.00;61.80
39931;DHT22;26635;-35.248;149.138;2023-02-07T00:59:51;26.90;61.10
39931;DHT22;26635;-35.248;149.138;2023-02-07T01:02:22;26.80;61.20
39931;DHT22;26635;-35.248;149.138;2023-02-07T01:04:53;26.60;60.80
39931;DHT22;26635;-35.248;149.138;2023-02-07T01:07:24;26.40;61.60
39931;DHT22;26635;-35.248;149.138;2023-02-07T01:09:54;26.50;62.30
39931;DHT22;26635;-35.248;149.138;2023-02-07T01:12:26;26.70;61.80
39931;DHT22;26635;-35.248;149.138;2023-02-07T01:14:58;27.00;60.80
39931;DHT22;26635;-35.248;149.138;2023-02-07T01:17:29;27.30;60.70
39931;DHT22;26635;-35.248;149.138;2023-02-07T01:20:01;27.50;60.10
39931;DHT22;26635;-35.248;149.138;2023-02-07T01:22:33;27.70;60.50
39931;DHT22;26635;-35.248;149.138;2023-02-07T01:25:06;27.90;59.80
39931;DHT22;26635;-35.248;149.138;2023-02-07T01:27:37;27.80;58.80
39931;DHT22;26635;-35.248;149.138;2023-02-07T01:30:09;27.70;59.30
39931;DHT22;26635;-35.248;149.138;2023-02-07T01:32:40;27.30;59.50
39931;DHT22;26635;-35.248;149.138;2023-02-07T01:35:11;26.90;60.30
39931;DHT22;26635;-35.248;149.138;2023-02-07T01:37:41;26.60;60.90
39931;DHT22;26635;-35.248;149.138;2023-02-07T01:40:12;26.40;61.30
39931;DHT22;26635;-35.248;149.138;2023-02-07T01:42:43;26.50;62.00
39931;DHT22;26635;-35.248;149.138;2023-02-07T01:45:36;26.70;61.10
39931;DHT22;26635;-35.248;149.138;2023-02-07T01:48:14;26.90;60.50
39931;DHT22;26635;-35.248;149.138;2023-02-07T01:50:48;26.90;60.10
39931;DHT22;26635;-35.248;149.138;2023-02-07T01:53:25;26.80;60.40
39931;DHT22;26635;-35.248;149.138;2023-02-07T01:55:59;26.80;60.50
39931;DHT22;26635;-35.248;149.138;2023-02-07T01:58:33;27.00;60.50
39931;DHT22;26635;-35.248;149.138;2023-02-07T02:01:09;27.30;58.50
39931;DHT22;26635;-35.248;149.138;2023-02-07T02:03:43;27.80;57.60
39931;DHT22;26635;-35.248;149.138;2023-02-07T02:06:16;28.20;57.10
39931;DHT22;26635;-35.248;149.138;2023-02-07T02:08:48;28.40;57.70
39931;DHT22;26635;-35.248;149.138;2023-02-07T02:17:17;27.50;58.70
39931;DHT22;26635;-35.248;149.138;2023-02-07T02:26:21;27.70;55.20
39931;DHT22;26635;-35.248;149.138;2023-02-07T02:45:57;29.50;52.10
39931;DHT22;26635;-35.248;149.138;2023-02-07T02:48:30;29.70;51.80
39931;DHT22;26635;-35.248;149.138;2023-02-07T02:51:03;29.80;48.10
39931;DHT22;26635;-35.248;149.138;2023-02-07T02:53:34;30.00;49.10
39931;DHT22;26635;-35.248;149.138;2023-02-07T02:56:11;30.00;49.30
39931;DHT22;26635;-35.248;149.138;2023-02-07T02:58:57;30.00;50.80
39931;DHT22;26635;-35.248;149.138;2023-02-07T03:02:37;30.00;49.70
39931;DHT22;26635;-35.248;149.138;2023-02-07T03:05:28;30.10;50.80
39931;DHT22;26635;-35.248;149.138;2023-02-07T03:16:47;30.10;48.30
39931;DHT22;26635;-35.248;149.138;2023-02-07T03:22:05;29.60;47.90
39931;DHT22;26635;-35.248;149.138;2023-02-07T03:24:50;29.30;47.70
39931;DHT22;26635;-35.248;149.138;2023-02-07T03:27:26;28.90;47.60
39931;DHT22;26635;-35.248;149.138;2023-02-07T03:30:01;28.60;49.50
39931;DHT22;26635;-35.248;149.138;2023-02-07T03:32:36;28.30;51.00
39931;DHT22;26635;-35.248;149.138;2023-02-07T03:37:56;28.20;51.40
39931;DHT22;26635;-35.248;149.138;2023-02-07T03:40:32;28.40;48.70
39931;DHT22;26635;-35.248;149.138;2023-02-07T03:45:39;28.60;49.70
39931;DHT22;26635;-35.248;149.138;2023-02-07T03:48:10;28.70;48.90
39931;DHT22;26635;-35.248;149.138;2023-02-07T03:50:41;28.90;49.20
39931;DHT22;26635;-35.248;149.138;2023-02-07T03:53:12;29.10;47.70
39931;DHT22;26635;-35.248;149.138;2023-02-07T03:55:43;29.30;49.80
39931;DHT22;26635;-35.248;149.138;2023-02-07T03:58:14;29.50;48.30
39931;DHT22;26635;-35.248;149.138;2023-02-07T04:00:45;29.60;47.10
39931;DHT22;26635;-35.248;149.138;2023-02-07T04:03:15;29.70;45.40
39931;DHT22;26635;-35.248;149.138;2023-02-07T04:05:46;29.60;46.10
39931;DHT22;26635;-35.248;149.138;2023-02-07T04:08:26;29.70;46.30
39931;DHT22;26635;-35.248;149.138;2023-02-07T04:10:59;29.60;45.90
39931;DHT22;26635;-35.248;149.138;2023-02-07T04:13:30;29.60;45.10
39931;DHT22;26635;-35.248;149.138;2023-02-07T04:16:03;29.70;44.60
39931;DHT22;26635;-35.248;149.138;2023-02-07T04:18:34;29.70;44.40
39931;DHT22;26635;-35.248;149.138;2023-02-07T04:21:07;29.70;44.20
39931;DHT22;26635;-35.248;149.138;2023-02-07T04:23:39;29.80;43.50
39931;DHT22;26635;-35.248;149.138;2023-02-07T04:26:09;29.70;47.80
39931;DHT22;26635;-35.248;149.138;2023-02-07T04:28:42;29.70;49.10
39931;DHT22;26635;-35.248;149.138;2023-02-07T04:31:13;29.60;48.10
39931;DHT22;26635;-35.248;149.138;2023-02-07T04:33:44;29.50;47.90
39931;DHT22;26635;-35.248;149.138;2023-02-07T04:36:15;29.60;49.60
39931;DHT22;26635;-35.248;149.138;2023-02-07T04:38:45;29.60;48.10
39931;DHT22;26635;-35.248;149.138;2023-02-07T04:41:16;29.50;49.00
39931;DHT22;26635;-35.248;149.138;2023-02-07T04:43:47;29.30;49.20
39931;DHT22;26635;-35.248;149.138;2023-02-07T04:46:18;29.30;50.90
39931;DHT22;26635;-35.248;149.138;2023-02-07T04:48:49;29.30;49.60
39931;DHT22;26635;-35.248;149.138;2023-02-07T04:51:20;29.30;49.30
39931;DHT22;26635;-35.248;149.138;2023-02-07T04:53:51;29.10;49.20
39931;DHT22;26635;-35.248;149.138;2023-02-07T04:56:23;29.00;49.20
39931;DHT22;26635;-35.248;149.138;2023-02-07T04:58:54;28.80;48.80
39931;DHT22;26635;-35.248;149.138;2023-02-07T05:01:25;28.70;48.50
39931;DHT22;26635;-35.248;149.138;2023-02-07T05:03:55;28.60;49.50
39931;DHT22;26635;-35.248;149.138;2023-02-07T05:06:26;28.30;51.00
39931;DHT22;26635;-35.248;149.138;2023-02-07T05:08:57;28.10;51.50
39931;DHT22;26635;-35.248;149.138;2023-02-07T05:11:28;27.80;51.90
39931;DHT22;26635;-35.248;149.138;2023-02-07T05:13:59;27.60;52.40
39931;DHT22;26635;-35.248;149.138;2023-02-07T05:16:29;27.30;53.00
39931;DHT22;26635;-35.248;149.138;2023-02-07T05:19:00;27.20;53.90
39931;DHT22;26635;-35.248;149.138;2023-02-07T05:21:30;27.10;54.20
39931;DHT22;26635;-35.248;149.138;2023-02-07T05:24:04;27.30;54.70
39931;DHT22;26635;-35.248;149.138;2023-02-07T05:26:35;27.40;55.20
39931;DHT22;26635;-35.248;149.138;2023-02-07T05:29:07;27.70;55.10
39931;DHT22;26635;-35.248;149.138;2023-02-07T05:31:37;27.90;53.70
39931;DHT22;26635;-35.248;149.138;2023-02-07T05:34:26;28.10;54.90
39931;DHT22;26635;-35.248;149.138;2023-02-07T05:36:56;28.20;55.60
39931;DHT22;26635;-35.248;149.138;2023-02-07T05:39:27;28.20;55.40
39931;DHT22;26635;-35.248;149.138;2023-02-07T05:41:57;28.20;56.90
39931;DHT22;26635;-35.248;149.138;2023-02-07T05:44:28;28.00;54.90
39931;DHT22;26635;-35.248;149.138;2023-02-07T05:46:58;27.90;56.50
39931;DHT22;26635;-35.248;149.138;2023-02-07T05:49:28;27.80;55.10
39931;DHT22;26635;-35.248;149.138;2023-02-07T05:51:58;27.60;55.50
39931;DHT22;26635;-35.248;149.138;2023-02-07T05:54:29;27.40;55.30
39931;DHT22;26635;-35.248;149.138;2023-02-07T05:56:59;27.20;56.10
39931;DHT22;26635;-35.248;149.138;2023-02-07T05:59:30;27.20;56.50
39931;DHT22;26635;-35.248;149.138;2023-02-07T06:02:03;27.10;56.90
39931;DHT22;26635;-35.248;149.138;2023-02-07T06:04:34;27.00;56.90
39931;DHT22;26635;-35.248;149.138;2023-02-07T06:07:04;26.90;56.20
39931;DHT22;26635;-35.248;149.138;2023-02-07T06:09:35;26.80;56.60
39931;DHT22;26635;-35.248;149.138;2023-02-07T06:12:06;26.60;56.80
39931;DHT22;26635;-35.248;149.138;2023-02-07T06:14:36;26.50;57.80
39931;DHT22;26635;-35.248;149.138;2023-02-07T06:17:07;26.30;57.90
39931;DHT22;26635;-35.248;149.138;2023-02-07T06:19:37;26.10;58.40
39931;DHT22;26635;-35.248;149.138;2023-02-07T06:22:07;26.00;59.50
39931;DHT22;26635;-35.248;149.138;2023-02-07T06:24:38;25.90;60.20
39931;DHT22;26635;-35.248;149.138;2023-02-07T06:27:08;25.80;60.50
39931;DHT22;26635;-35.248;149.138;2023-02-07T06:29:40;25.70;60.60
39931;DHT22;26635;-35.248;149.138;2023-02-07T06:32:11;25.70;62.00
39931;DHT22;26635;-35.248;149.138;2023-02-07T06:34:42;25.50;61.80
39931;DHT22;26635;-35.248;149.138;2023-02-07T06:37:14;25.40;61.10
39931;DHT22;26635;-35.248;149.138;2023-02-07T06:39:45;25.40;62.00
39931;DHT22;26635;-35.248;149.138;2023-02-07T06:42:15;25.30;62.60
39931;DHT22;26635;-35.248;149.138;2023-02-07T06:44:46;25.30;63.30
39931;DHT22;26635;-35.248;149.138;2023-02-07T06:47:16;25.20;63.50
39931;DHT22;26635;-35.248;149.138;2023-02-07T06:49:49;25.00;63.60
39931;DHT22;26635;-35.248;149.138;2023-02-07T06:52:19;24.90;63.80
39931;DHT22;26635;-35.248;149.138;2023-02-07T06:54:49;24.70;64.50
39931;DHT22;26635;-35.248;149.138;2023-02-07T06:57:20;24.60;64.80
39931;DHT22;26635;-35.248;149.138;2023-02-07T06:59:50;24.40;65.20
39931;DHT22;26635;-35.248;149.138;2023-02-07T07:02:20;24.30;65.50
39931;DHT22;26635;-35.248;149.138;2023-02-07T07:04:51;24.20;65.90
39931;DHT22;26635;-35.248;149.138;2023-02-07T07:07:21;24.10;66.20
39931;DHT22;26635;-35.248;149.138;2023-02-07T07:09:52;24.10;66.60
39931;DHT22;26635;-35.248;149.138;2023-02-07T07:12:22;24.00;66.90
39931;DHT22;26635;-35.248;149.138;2023-02-07T07:14:53;23.80;67.00
39931;DHT22;26635;-35.248;149.138;2023-02-07T07:17:24;23.70;67.60
39931;DHT22;26635;-35.248;149.138;2023-02-07T07:19:55;23.40;67.70
39931;DHT22;26635;-35.248;149.138;2023-02-07T07:22:26;23.30;69.40
39931;DHT22;26635;-35.248;149.138;2023-02-07T07:24:56;23.20;68.70
39931;DHT22;26635;-35.248;149.138;2023-02-07T07:27:27;23.20;68.80
39931;DHT22;26635;-35.248;149.138;2023-02-07T07:29:59;23.10;68.60
39931;DHT22;26635;-35.248;149.138;2023-02-07T07:32:30;23.00;69.00
39931;DHT22;26635;-35.248;149.138;2023-02-07T07:35:02;23.00;69.70
39931;DHT22;26635;-35.248;149.138;2023-02-07T07:37:34;22.80;69.00
39931;DHT22;26635;-35.248;149.138;2023-02-07T07:40:05;22.80;69.70
39931;DHT22;26635;-35.248;149.138;2023-02-07T07:42:36;22.80;69.80
39931;DHT22;26635;-35.248;149.138;2023-02-07T07:45:08;22.70;69.40
39931;DHT22;26635;-35.248;149.138;2023-02-07T07:47:40;22.80;69.90
39931;DHT22;26635;-35.248;149.138;2023-02-07T07:50:12;22.70;69.50
39931;DHT22;26635;-35.248;149.138;2023-02-07T07:52:44;22.50;69.90
39931;DHT22;26635;-35.248;149.138;2023-02-07T07:55:17;22.40;70.70
39931;DHT22;26635;-35.248;149.138;2023-02-07T07:57:48;22.30;70.80
39931;DHT22;26635;-35.248;149.138;2023-02-07T08:00:20;22.10;71.70
39931;DHT22;26635;-35.248;149.138;2023-02-07T08:02:50;22.10;71.80
39931;DHT22;26635;-35.248;149.138;2023-02-07T08:05:23;22.00;72.10
39931;DHT22;26635;-35.248;149.138;2023-02-07T08:07:54;21.80;72.20
39931;DHT22;26635;-35.248;149.138;2023-02-07T08:10:25;21.70;72.80
39931;DHT22;26635;-35.248;149.138;2023-02-07T08:12:57;21.60;73.20
39931;DHT22;26635;-35.248;149.138;2023-02-07T08:15:28;21.50;73.40
39931;DHT22;26635;-35.248;149.138;2023-02-07T08:17:59;21.40;74.10
39931;DHT22;26635;-35.248;149.138;2023-02-07T08:20:30;21.30;74.40
39931;DHT22;26635;-35.248;149.138;2023-02-07T08:23:01;21.20;75.00
39931;DHT22;26635;-35.248;149.138;2023-02-07T08:25:32;21.20;75.20
39931;DHT22;26635;-35.248;149.138;2023-02-07T08:28:03;21.20;75.30
39931;DHT22;26635;-35.248;149.138;2023-02-07T08:30:34;21.20;75.30
39931;DHT22;26635;-35.248;149.138;2023-02-07T08:33:08;21.10;75.20
39931;DHT22;26635;-35.248;149.138;2023-02-07T08:35:40;21.10;76.00
39931;DHT22;26635;-35.248;149.138;2023-02-07T08:38:11;21.00;75.80
39931;DHT22;26635;-35.248;149.138;2023-02-07T08:40:51;21.00;75.90
39931;DHT22;26635;-35.248;149.138;2023-02-07T08:43:22;21.00;75.90
39931;DHT22;26635;-35.248;149.138;2023-02-07T08:45:54;21.00;75.90
39931;DHT22;26635;-35.248;149.138;2023-02-07T08:48:26;21.00;75.80
39931;DHT22;26635;-35.248;149.138;2023-02-07T08:51:02;20.90;75.60
39931;DHT22;26635;-35.248;149.138;2023-02-07T08:53:37;20.70;75.70
39931;DHT22;26635;-35.248;149.138;2023-02-07T08:56:08;20.60;76.40
39931;DHT22;26635;-35.248;149.138;2023-02-07T08:58:39;20.60;76.70
39931;DHT22;26635;-35.248;149.138;2023-02-07T09:01:10;20.60;76.80
39931;DHT22;26635;-35.248;149.138;2023-02-07T09:03:41;20.60;76.70
39931;DHT22;26635;-35.248;149.138;2023-02-07T09:06:12;20.50;76.30
39931;DHT22;26635;-35.248;149.138;2023-02-07T09:08:42;20.50;76.80
39931;DHT22;26635;-35.248;149.138;2023-02-07T09:11:13;20.50;77.10
39931;DHT22;26635;-35.248;149.138;2023-02-07T09:13:44;20.50;76.50
39931;DHT22;26635;-35.248;149.138;2023-02-07T09:16:17;20.50;77.50
39931;DHT22;26635;-35.248;149.138;2023-02-07T09:18:49;20.50;76.60
39931;DHT22;26635;-35.248;149.138;2023-02-07T09:21:21;20.40;76.90
39931;DHT22;26635;-35.248;149.138;2023-02-07T09:23:53;20.30;77.30
39931;DHT22;26635;-35.248;149.138;2023-02-07T09:26:24;20.30;77.20
39931;DHT22;26635;-35.248;149.138;2023-02-07T09:29:01;20.40;77.30
39931;DHT22;26635;-35.248;149.138;2023-02-07T09:31:33;20.30;77.30
39931;DHT22;26635;-35.248;149.138;2023-02-07T09:34:06;20.30;77.40
39931;DHT22;26635;-35.248;149.138;2023-02-07T09:36:36;20.30;77.30
39931;DHT22;26635;-35.248;149.138;2023-02-07T09:39:07;20.30;77.60
39931;DHT22;26635;-35.248;149.138;2023-02-07T09:47:22;20.30;77.60
39931;DHT22;26635;-35.248;149.138;2023-02-07T09:50:29;20.30;77.70
39931;DHT22;26635;-35.248;149.138;2023-02-07T09:53:24;20.20;77.80
39931;DHT22;26635;-35.248;149.138;2023-02-07T09:55:59;20.30;77.90
39931;DHT22;26635;-35.248;149.138;2023-02-07T09:58:56;20.30;77.90
39931;DHT22;26635;-35.248;149.138;2023-02-07T10:01:45;20.30;77.60
39931;DHT22;26635;-35.248;149.138;2023-02-07T10:06:53;20.20;77.90
39931;DHT22;26635;-35.248;149.138;2023-02-07T10:09:37;20.10;77.90
39931;DHT22;26635;-35.248;149.138;2023-02-07T10:15:15;20.20;78.10
39931;DHT22;26635;-35.248;149.138;2023-02-07T10:23:25;20.20;78.30
39931;DHT22;26635;-35.248;149.138;2023-02-07T10:31:15;20.20;77.90
39931;DHT22;26635;-35.248;149.138;2023-02-07T10:34:02;20.20;77.90
39931;DHT22;26635;-35.248;149.138;2023-02-07T10:36:46;20.20;78.30
39931;DHT22;26635;-35.248;149.138;2023-02-07T10:39:28;20.20;77.90
39931;DHT22;26635;-35.248;149.138;2023-02-07T10:42:03;20.20;77.90
39931;DHT22;26635;-35.248;149.138;2023-02-07T10:44:36;20.20;77.90
39931;DHT22;26635;-35.248;149.138;2023-02-07T10:47:14;20.20;77.60
39931;DHT22;26635;-35.248;149.138;2023-02-07T10:49:48;20.20;78.00
39931;DHT22;26635;-35.248;149.138;2023-02-07T10:52:31;20.20;78.80
39931;DHT22;26635;-35.248;149.138;2023-02-07T10:55:06;20.10;78.10
39931;DHT22;26635;-35.248;149.138;2023-02-07T10:57:39;20.10;77.80
39931;DHT22;26635;-35.248;149.138;2023-02-07T11:00:29;20.10;78.10
39931;DHT22;26635;-35.248;149.138;2023-02-07T11:03:03;20.10;77.90
39931;DHT22;26635;-35.248;149.138;2023-02-07T11:05:39;20.10;77.80
39931;DHT22;26635;-35.248;149.138;2023-02-07T11:10:59;20.20;77.90
39931;DHT22;26635;-35.248;149.138;2023-02-07T11:13:30;20.20;77.90
39931;DHT22;26635;-35.248;149.138;2023-02-07T11:16:16;20.10;77.40
39931;DHT22;26635;-35.248;149.138;2023-02-07T11:19:03;20.20;77.80
39931;DHT22;26635;-35.248;149.138;2023-02-07T11:21:41;20.10;77.50
39931;DHT22;26635;-35.248;149.138;2023-02-07T11:24:18;20.10;77.80
39931;DHT22;26635;-35.248;149.138;2023-02-07T11:29:27;20.10;77.80
39931;DHT22;26635;-35.248;149.138;2023-02-07T11:32:02;20.10;77.90
39931;DHT22;26635;-35.248;149.138;2023-02-07T11:34:47;20.10;78.80
39931;DHT22;26635;-35.248;149.138;2023-02-07T11:37:23;20.00;77.90
39931;DHT22;26635;-35.248;149.138;2023-02-07T11:40:13;20.00;77.80
39931;DHT22;26635;-35.248;149.138;2023-02-07T11:45:50;20.00;77.80
39931;DHT22;26635;-35.248;149.138;2023-02-07T11:48:33;20.00;77.80
39931;DHT22;26635;-35.248;149.138;2023-02-07T11:51:07;19.90;78.40
39931;DHT22;26635;-35.248;149.138;2023-02-07T11:54:09;19.90;78.40
39931;DHT22;26635;-35.248;149.138;2023-02-07T11:56:40;19.90;78.50
39931;DHT22;26635;-35.248;149.138;2023-02-07T11:59:19;19.90;78.70
39931;DHT22;26635;-35.248;149.138;2023-02-07T12:01:56;19.90;78.60
39931;DHT22;26635;-35.248;149.138;2023-02-07T12:04:33;19.90;78.50
39931;DHT22;26635;-35.248;149.138;2023-02-07T12:09:59;19.90;78.10
39931;DHT22;26635;-35.248;149.138;2023-02-07T12:16:18;19.90;77.70
39931;DHT22;26635;-35.248;149.138;2023-02-07T12:21:17;19.80;77.80
39931;DHT22;26635;-35.248;149.138;2023-02-07T12:24:20;19.80;78.40
39931;DHT22;26635;-35.248;149.138;2023-02-07T12:35:29;19.80;78.30
39931;DHT22;26635;-35.248;149.138;2023-02-07T12:38:41;19.80;78.20
39931;DHT22;26635;-35.248;149.138;2023-02-07T12:41:24;19.80;78.00
39931;DHT22;26635;-35.248;149.138;2023-02-07T13:01:19;19.80;78.30
39931;DHT22;26635;-35.248;149.138;2023-02-07T13:09:41;19.80;78.30
39931;DHT22;26635;-35.248;149.138;2023-02-07T13:12:28;19.70;78.50
39931;DHT22;26635;-35.248;149.138;2023-02-07T13:15:22;19.70;78.40
39931;DHT22;26635;-35.248;149.138;2023-02-07T13:18:10;19.70;78.00
39931;DHT22;26635;-35.248;149.138;2023-02-07T13:21:02;19.70;78.30
39931;DHT22;26635;-35.248;149.138;2023-02-07T13:23:37;19.80;78.30
39931;DHT22;26635;-35.248;149.138;2023-02-07T13:26:20;19.70;78.10
39931;DHT22;26635;-35.248;149.138;2023-02-07T13:31:46;19.70;78.30
39931;DHT22;26635;-35.248;149.138;2023-02-07T13:34:29;19.70;78.20
39931;DHT22;26635;-35.248;149.138;2023-02-07T13:37:02;19.70;78.20
39931;DHT22;26635;-35.248;149.138;2023-02-07T13:40:04;19.70;78.40
39931;DHT22;26635;-35.248;149.138;2023-02-07T13:43:05;19.70;78.60
39931;DHT22;26635;-35.248;149.138;2023-02-07T13:46:01;19.70;78.50
39931;DHT22;26635;-35.248;149.138;2023-02-07T13:48:45;19.70;78.50
39931;DHT22;26635;-35.248;149.138;2023-02-07T13:51:45;19.70;78.50
39931;DHT22;26635;-35.248;149.138;2023-02-07T13:54:34;19.60;78.70
39931;DHT22;26635;-35.248;149.138;2023-02-07T13:57:36;19.60;78.80
39931;DHT22;26635;-35.248;149.138;2023-02-07T14:00:56;19.60;78.80
39931;DHT22;26635;-35.248;149.138;2023-02-07T14:03:33;19.60;78.90
39931;DHT22;26635;-35.248;149.138;2023-02-07T14:06:25;19.60;78.70
39931;DHT22;26635;-35.248;149.138;2023-02-07T14:09:15;19.60;79.00
39931;DHT22;26635;-35.248;149.138;2023-02-07T14:12:12;19.60;79.00
39931;DHT22;26635;-35.248;149.138;2023-02-07T14:14:46;19.60;78.80
39931;DHT22;26635;-35.248;149.138;2023-02-07T14:20:03;19.50;78.80
39931;DHT22;26635;-35.248;149.138;2023-02-07T14:25:22;19.50;79.10
39931;DHT22;26635;-35.248;149.138;2023-02-07T14:31:00;19.40;79.20
39931;DHT22;26635;-35.248;149.138;2023-02-07T14:33:39;19.50;79.10
39931;DHT22;26635;-35.248;149.138;2023-02-07T14:41:51;19.40;79.20
39931;DHT22;26635;-35.248;149.138;2023-02-07T14:44:36;19.40;79.00
39931;DHT22;26635;-35.248;149.138;2023-02-07T14:47:24;19.40;79.30
39931;DHT22;26635;-35.248;149.138;2023-02-07T14:49:59;19.40;79.80
39931;DHT22;26635;-35.248;149.138;2023-02-07T14:52:33;19.40;79.70
39931;DHT22;26635;-35.248;149.138;2023-02-07T14:55:18;19.40;79.30
39931;DHT22;26635;-35.248;149.138;2023-02-07T14:57:58;19.40;79.70
39931;DHT22;26635;-35.248;149.138;2023-02-07T15:00:43;19.40;79.20
39931;DHT22;26635;-35.248;149.138;2023-02-07T15:03:20;19.40;79.30
39931;DHT22;26635;-35.248;149.138;2023-02-07T15:05:57;19.40;79.30
39931;DHT22;26635;-35.248;149.138;2023-02-07T15:08:33;19.40;79.40
39931;DHT22;26635;-35.248;149.138;2023-02-07T15:11:06;19.40;79.40
39931;DHT22;26635;-35.248;149.138;2023-02-07T15:13:40;19.40;79.30
39931;DHT22;26635;-35.248;149.138;2023-02-07T15:16:20;19.40;79.60
39931;DHT22;26635;-35.248;149.138;2023-02-07T15:21:47;19.30;79.60
39931;DHT22;26635;-35.248;149.138;2023-02-07T15:24:38;19.30;79.50
39931;DHT22;26635;-35.248;149.138;2023-02-07T15:27:26;19.30;79.40
39931;DHT22;26635;-35.248;149.138;2023-02-07T15:30:03;19.30;79.10
39931;DHT22;26635;-35.248;149.138;2023-02-07T15:32:45;19.30;79.50
39931;DHT22;26635;-35.248;149.138;2023-02-07T15:35:39;19.20;79.10
39931;DHT22;26635;-35.248;149.138;2023-02-07T15:38:19;19.20;79.40
39931;DHT22;26635;-35.248;149.138;2023-02-07T15:40:56;19.20;79.40
39931;DHT22;26635;-35.248;149.138;2023-02-07T15:43:30;19.20;79.60
39931;DHT22;26635;-35.248;149.138;2023-02-07T15:46:10;19.20;79.80
39931;DHT22;26635;-35.248;149.138;2023-02-07T15:48:51;19.20;79.60
39931;DHT22;26635;-35.248;149.138;2023-02-07T15:51:29;19.10;80.20
39931;DHT22;26635;-35.248;149.138;2023-02-07T15:54:02;19.10;79.80
39931;DHT22;26635;-35.248;149.138;2023-02-07T15:56:33;19.00;80.10
39931;DHT22;26635;-35.248;149.138;2023-02-07T15:59:09;19.00;80.00
39931;DHT22;26635;-35.248;149.138;2023-02-07T16:01:49;19.00;80.40
39931;DHT22;26635;-35.248;149.138;2023-02-07T16:04:24;19.00;80.30
39931;DHT22;26635;-35.248;149.138;2023-02-07T16:07:06;19.00;80.20
39931;DHT22;26635;-35.248;149.138;2023-02-07T16:09:43;19.00;80.50
39931;DHT22;26635;-35.248;149.138;2023-02-07T16:17:58;19.00;80.70
39931;DHT22;26635;-35.248;149.138;2023-02-07T16:20:32;19.00;80.60
39931;DHT22;26635;-35.248;149.138;2023-02-07T16:23:07;18.90;80.30
39931;DHT22;26635;-35.248;149.138;2023-02-07T16:25:40;18.90;81.80
39931;DHT22;26635;-35.248;149.138;2023-02-07T16:28:14;18.90;80.80
39931;DHT22;26635;-35.248;149.138;2023-02-07T16:30:45;19.00;80.50
39931;DHT22;26635;-35.248;149.138;2023-02-07T16:33:17;19.00;80.20
39931;DHT22;26635;-35.248;149.138;2023-02-07T16:35:48;19.00;80.30
39931;DHT22;26635;-35.248;149.138;2023-02-07T16:38:23;19.00;80.40
39931;DHT22;26635;-35.248;149.138;2023-02-07T16:40:56;18.90;80.40
39931;DHT22;26635;-35.248;149.138;2023-02-07T16:46:04;18.90;80.70
39931;DHT22;26635;-35.248;149.138;2023-02-07T16:48:35;18.80;80.80
39931;DHT22;26635;-35.248;149.138;2023-02-07T16:51:08;18.80;80.30
39931;DHT22;26635;-35.248;149.138;2023-02-07T16:53:38;18.80;81.00
39931;DHT22;26635;-35.248;149.138;2023-02-07T16:56:16;18.70;81.90
39931;DHT22;26635;-35.248;149.138;2023-02-07T16:58:48;18.80;81.20
39931;DHT22;26635;-35.248;149.138;2023-02-07T17:01:20;18.80;81.20
39931;DHT22;26635;-35.248;149.138;2023-02-07T17:03:53;18.70;81.00
39931;DHT22;26635;-35.248;149.138;2023-02-07T17:06:24;18.80;81.30
39931;DHT22;26635;-35.248;149.138;2023-02-07T17:08:55;18.80;80.60
39931;DHT22;26635;-35.248;149.138;2023-02-07T17:11:27;18.80;81.00
39931;DHT22;26635;-35.248;149.138;2023-02-07T17:13:58;18.80;81.10
39931;DHT22;26635;-35.248;149.138;2023-02-07T17:16:29;18.70;80.60
39931;DHT22;26635;-35.248;149.138;2023-02-07T17:19:00;18.70;81.00
39931;DHT22;26635;-35.248;149.138;2023-02-07T17:21:32;18.70;80.70
39931;DHT22;26635;-35.248;149.138;2023-02-07T17:24:04;18.70;80.80
39931;DHT22;26635;-35.248;149.138;2023-02-07T17:26:35;18.70;81.00
39931;DHT22;26635;-35.248;149.138;2023-02-07T17:29:06;18.70;81.10
39931;DHT22;26635;-35.248;149.138;2023-02-07T17:31:37;18.70;81.30
39931;DHT22;26635;-35.248;149.138;2023-02-07T17:34:08;18.70;81.20
39931;DHT22;26635;-35.248;149.138;2023-02-07T17:36:46;18.60;81.60
39931;DHT22;26635;-35.248;149.138;2023-02-07T17:39:18;18.60;81.40
39931;DHT22;26635;-35.248;149.138;2023-02-07T17:41:49;18.60;81.40
39931;DHT22;26635;-35.248;149.138;2023-02-07T17:44:21;18.60;81.80
39931;DHT22;26635;-35.248;149.138;2023-02-07T17:46:53;18.60;81.60
39931;DHT22;26635;-35.248;149.138;2023-02-07T17:49:25;18.60;81.80
39931;DHT22;26635;-35.248;149.138;2023-02-07T17:51:55;18.60;81.60
39931;DHT22;26635;-35.248;149.138;2023-02-07T17:54:27;18.60;81.60
39931;DHT22;26635;-35.248;149.138;2023-02-07T17:56:58;18.60;81.20
39931;DHT22;26635;-35.248;149.138;2023-02-07T17:59:29;18.60;81.40
39931;DHT22;26635;-35.248;149.138;2023-02-07T18:01:59;18.60;81.70